createdAt,value
2019-04-30T00:01:26.652Z,9.90
2019-04-30T00:03:59.373Z,10.00
2019-04-30T00:06:34.541Z,10.00
2019-04-30T00:09:02.163Z,10.10
2019-04-30T00:11:31.694Z,10.00
2019-04-30T00:14:01.403Z,10.00
2019-04-30T00:16:35.564Z,10.00
2019-04-30T00:19:02.212Z,9.80
2019-04-30T00:21:31.675Z,9.60
2019-04-30T00:24:06.327Z,9.60
2019-04-30T00:26:32.641Z,9.50
2019-04-30T00:29:02.250Z,9.50
2019-04-30T00:31:31.991Z,9.60
2019-04-30T00:34:01.534Z,9.60
2019-04-30T00:36:34.134Z,9.70
2019-04-30T00:39:02.209Z,9.70
2019-04-30T00:41:32.037Z,9.70
2019-04-30T00:44:24.813Z,9.70
2019-04-30T00:46:52.075Z,9.60
2019-04-30T00:49:23.177Z,9.60
2019-04-30T00:51:54.730Z,9.60
2019-04-30T00:54:28.008Z,9.70
2019-04-30T00:56:57.498Z,9.70
2019-04-30T00:59:26.405Z,9.60
2019-04-30T01:01:57.528Z,9.70
2019-04-30T01:04:28.781Z,9.70
2019-04-30T01:07:00.269Z,9.70
2019-04-30T01:09:30.058Z,9.80
2019-04-30T01:11:59.571Z,9.80
2019-04-30T01:14:31.985Z,9.70
2019-04-30T01:17:03.837Z,9.80
2019-04-30T01:19:32.904Z,9.90
2019-04-30T01:22:03.022Z,9.90
2019-04-30T01:24:38.781Z,9.90
2019-04-30T01:27:10.674Z,9.80
2019-04-30T01:29:44.084Z,9.70
2019-04-30T01:32:17.459Z,9.70
2019-04-30T01:34:44.215Z,9.80
2019-04-30T01:37:14.387Z,9.90
2019-04-30T01:39:43.901Z,9.90
2019-04-30T01:42:13.393Z,9.80
2019-04-30T01:44:43.563Z,9.80
2019-04-30T01:47:14.119Z,9.80
2019-04-30T01:49:44.867Z,9.80
2019-04-30T01:52:14.566Z,9.90
2019-04-30T01:54:44.091Z,9.80
2019-04-30T01:57:35.999Z,9.80
2019-04-30T02:00:09.746Z,9.80
2019-04-30T02:02:59.295Z,9.80
2019-04-30T02:05:28.978Z,9.90
2019-04-30T02:07:58.634Z,9.90
2019-04-30T02:10:49.187Z,9.80
2019-04-30T02:13:18.914Z,9.80
2019-04-30T02:15:49.251Z,9.90
2019-04-30T02:18:19.514Z,9.90
2019-04-30T02:20:49.783Z,9.90
2019-04-30T02:23:19.745Z,9.90
2019-04-30T02:25:49.393Z,9.90
2019-04-30T02:28:19.161Z,10.00
2019-04-30T02:30:50.408Z,10.00
2019-04-30T02:33:20.505Z,10.00
2019-04-30T02:38:39.578Z,10.10
2019-04-30T02:41:10.236Z,10.00
2019-04-30T02:43:42.126Z,10.00
2019-04-30T02:46:15.632Z,9.90
2019-04-30T02:48:47.240Z,10.00
2019-04-30T02:51:22.550Z,10.00
2019-04-30T02:53:55.791Z,10.00
2019-04-30T02:56:27.102Z,10.00
2019-04-30T02:59:00.441Z,10.00
2019-04-30T03:01:50.128Z,10.00
2019-04-30T03:04:19.772Z,10.00
2019-04-30T03:06:50.229Z,10.00
2019-04-30T03:09:20.482Z,9.90
2019-04-30T03:11:50.374Z,9.80
2019-04-30T03:14:20.364Z,9.80
2019-04-30T03:16:53.284Z,9.80
2019-04-30T03:22:10.180Z,10.00
2019-04-30T03:24:42.924Z,9.90
2019-04-30T03:27:11.095Z,9.80
2019-04-30T03:29:40.842Z,9.80
2019-04-30T03:32:23.281Z,9.80
2019-04-30T03:34:52.829Z,9.80
2019-04-30T03:37:22.299Z,9.80
2019-04-30T03:39:51.778Z,9.80
2019-04-30T03:42:21.292Z,9.80
2019-04-30T03:44:50.759Z,9.80
2019-04-30T03:47:20.494Z,9.80
2019-04-30T03:49:50.386Z,9.80
2019-04-30T03:52:20.031Z,9.80
2019-04-30T03:54:49.827Z,9.70
2019-04-30T03:57:20.462Z,9.70
2019-04-30T03:59:50.296Z,9.70
2019-04-30T04:02:21.379Z,9.70
2019-04-30T04:04:52.907Z,9.80
2019-04-30T04:10:11.587Z,9.80
2019-04-30T04:12:41.095Z,9.80
2019-04-30T04:15:12.315Z,9.80
2019-04-30T04:17:41.788Z,9.80
2019-04-30T04:20:11.783Z,9.90
2019-04-30T04:22:41.344Z,9.80
2019-04-30T04:25:13.210Z,9.80
2019-04-30T04:27:42.591Z,9.80
2019-04-30T04:30:12.779Z,9.80
2019-04-30T04:32:42.283Z,9.90
2019-04-30T04:35:13.000Z,10.00
2019-04-30T04:37:42.716Z,10.00
2019-04-30T04:40:21.016Z,9.90
2019-04-30T04:42:49.597Z,9.90
2019-04-30T04:45:19.878Z,9.90
2019-04-30T04:47:50.392Z,9.90
2019-04-30T04:50:20.440Z,9.90
2019-04-30T04:52:49.953Z,10.00
2019-04-30T04:55:22.139Z,10.00
2019-04-30T04:57:50.813Z,10.00
2019-04-30T05:00:20.728Z,10.00
2019-04-30T05:02:52.052Z,10.00
2019-04-30T05:05:21.536Z,9.90
2019-04-30T05:07:51.015Z,9.90
2019-04-30T05:10:20.563Z,9.80
2019-04-30T05:12:51.086Z,9.80
2019-04-30T05:15:20.741Z,9.80
2019-04-30T05:17:50.225Z,9.80
2019-04-30T05:20:19.727Z,9.80
2019-04-30T05:22:58.563Z,9.90
2019-04-30T05:25:29.619Z,10.00
2019-04-30T05:27:59.199Z,10.10
2019-04-30T05:30:29.540Z,10.10
2019-04-30T05:32:59.249Z,10.20
2019-04-30T05:35:30.952Z,10.30
2019-04-30T05:38:01.436Z,10.40
2019-04-30T05:40:30.902Z,10.40
2019-04-30T05:43:00.493Z,10.50
2019-04-30T05:45:30.021Z,10.30
2019-04-30T05:48:05.870Z,10.30
2019-04-30T05:50:39.178Z,10.30
2019-04-30T05:53:09.074Z,10.30
2019-04-30T05:55:39.544Z,10.10
2019-04-30T05:58:09.603Z,10.00
2019-04-30T06:00:40.034Z,10.00
2019-04-30T06:03:09.957Z,10.00
2019-04-30T06:05:51.556Z,10.00
2019-04-30T06:08:22.799Z,9.90
2019-04-30T06:10:56.893Z,10.00
2019-04-30T06:13:28.735Z,10.00
2019-04-30T06:15:59.963Z,9.90
2019-04-30T06:18:30.991Z,9.90
2019-04-30T06:21:00.863Z,10.00
2019-04-30T06:23:30.362Z,10.10
2019-04-30T06:26:09.365Z,9.90
2019-04-30T06:28:51.485Z,10.10
2019-04-30T06:31:43.158Z,10.10
2019-04-30T06:34:12.012Z,10.20
2019-04-30T06:36:50.945Z,10.20
2019-04-30T06:39:12.731Z,10.20
2019-04-30T06:41:42.567Z,10.20
2019-04-30T06:44:12.668Z,10.20
2019-04-30T06:46:43.611Z,10.30
2019-04-30T06:49:14.520Z,10.40
2019-04-30T06:51:45.574Z,10.50
2019-04-30T06:54:15.189Z,10.60
2019-04-30T06:56:44.660Z,10.50
2019-04-30T06:59:14.164Z,10.60
2019-04-30T07:01:44.031Z,10.70
2019-04-30T07:04:13.602Z,10.90
2019-04-30T07:06:45.125Z,10.90
2019-04-30T07:09:16.038Z,10.90
2019-04-30T07:11:49.246Z,11.00
2019-04-30T07:14:19.563Z,11.20
2019-04-30T07:16:54.868Z,11.10
2019-04-30T07:19:33.013Z,11.20
2019-04-30T07:21:55.500Z,11.10
2019-04-30T07:24:26.624Z,11.20
2019-04-30T07:26:59.700Z,11.30
2019-04-30T07:29:29.492Z,11.20
2019-04-30T07:31:59.222Z,11.00
2019-04-30T07:34:30.285Z,11.10
2019-04-30T07:37:11.814Z,11.00
2019-04-30T07:39:33.361Z,11.10
2019-04-30T07:42:02.586Z,11.20
2019-04-30T07:44:36.433Z,11.10
2019-04-30T07:47:03.897Z,11.10
2019-04-30T07:52:05.426Z,11.10
2019-04-30T07:54:35.389Z,11.20
2019-04-30T07:57:04.904Z,11.40
2019-04-30T07:59:34.375Z,11.50
2019-04-30T08:04:36.883Z,11.40
2019-04-30T08:07:06.367Z,11.70
2019-04-30T08:09:35.521Z,11.00
2019-04-30T08:09:38.272Z,11.50
2019-04-30T08:09:39.783Z,11.80
2019-04-30T08:12:09.370Z,12.10
2019-04-30T08:14:44.554Z,11.90
2019-04-30T08:17:14.034Z,12.10
2019-04-30T08:19:43.521Z,12.10
2019-04-30T08:22:13.131Z,11.80
2019-04-30T08:24:42.623Z,12.00
2019-04-30T08:27:12.107Z,12.00
2019-04-30T08:29:41.594Z,11.80
2019-04-30T08:32:11.075Z,11.90
2019-04-30T08:34:42.654Z,11.90
2019-04-30T08:37:17.144Z,11.90
2019-04-30T08:39:43.604Z,12.30
2019-04-30T08:42:13.245Z,13.80
2019-04-30T08:44:42.760Z,15.80
2019-04-30T08:47:12.483Z,15.70
2019-04-30T08:49:41.988Z,15.80
2019-04-30T08:52:11.787Z,16.70
2019-04-30T08:54:41.611Z,16.20
2019-04-30T08:57:11.151Z,16.30
2019-04-30T08:59:40.678Z,16.50
2019-04-30T09:02:16.078Z,16.80
2019-04-30T09:04:41.526Z,16.80
2019-04-30T09:07:11.190Z,17.40
2019-04-30T09:09:40.678Z,17.30
2019-04-30T09:12:10.222Z,18.10
2019-04-30T09:14:42.495Z,20.00
2019-04-30T09:17:19.731Z,21.70
2019-04-30T09:19:49.176Z,22.20
2019-04-30T09:22:19.451Z,23.20
2019-04-30T09:24:49.866Z,23.90
2019-04-30T09:27:22.198Z,22.90
2019-04-30T09:29:51.711Z,22.20
2019-04-30T09:32:21.207Z,21.80
2019-04-30T09:35:10.372Z,22.30
2019-04-30T09:37:41.769Z,22.00
2019-04-30T09:40:18.249Z,21.30
2019-04-30T09:42:42.924Z,20.20
2019-04-30T09:45:12.802Z,19.60
2019-04-30T09:48:01.607Z,19.90
2019-04-30T09:50:31.341Z,20.70
2019-04-30T09:53:02.689Z,22.00
2019-04-30T09:55:32.430Z,21.80
2019-04-30T09:58:21.368Z,22.70
2019-04-30T10:01:10.239Z,22.10
2019-04-30T10:03:40.399Z,24.00
2019-04-30T10:06:38.928Z,25.20
2019-04-30T10:09:01.183Z,23.60
2019-04-30T10:11:32.273Z,25.30
2019-04-30T10:14:21.269Z,25.20
2019-04-30T10:16:52.351Z,23.60
2019-04-30T10:19:21.852Z,22.10
2019-04-30T10:21:51.745Z,23.70
2019-04-30T10:24:22.799Z,23.60
2019-04-30T10:27:13.377Z,24.10
2019-04-30T10:29:43.563Z,26.60
2019-04-30T10:32:13.288Z,29.30
2019-04-30T10:35:02.177Z,25.40
2019-04-30T10:37:31.869Z,26.40
2019-04-30T10:40:01.414Z,22.10
2019-04-30T10:42:30.985Z,22.40
2019-04-30T10:45:00.473Z,24.80
2019-04-30T10:47:32.497Z,24.90
2019-04-30T10:50:21.257Z,25.30
2019-04-30T10:53:12.413Z,27.00
2019-04-30T10:56:00.664Z,27.00
2019-04-30T10:58:30.168Z,24.90
2019-04-30T11:01:01.987Z,22.70
2019-04-30T11:03:31.141Z,23.90
2019-04-30T11:06:00.765Z,24.30
2019-04-30T11:08:30.259Z,26.50
2019-04-30T11:10:59.874Z,25.70
2019-04-30T11:13:48.688Z,26.00
2019-04-30T11:16:18.892Z,24.60
2019-04-30T11:18:48.718Z,23.20
2019-04-30T11:21:19.766Z,24.80
2019-04-30T11:24:09.342Z,23.50
2019-04-30T11:26:40.265Z,22.80
2019-04-30T11:29:10.768Z,23.90
2019-04-30T11:31:42.199Z,23.20
2019-04-30T11:34:12.004Z,23.20
2019-04-30T11:36:41.560Z,24.10
2019-04-30T11:39:23.695Z,24.10
2019-04-30T11:41:53.219Z,23.50
2019-04-30T11:44:30.826Z,25.40
2019-04-30T11:46:59.671Z,26.10
2019-04-30T11:49:29.311Z,25.90
2019-04-30T11:51:59.039Z,25.50
2019-04-30T11:54:29.887Z,25.40
2019-04-30T11:57:18.894Z,26.30
2019-04-30T11:59:48.645Z,26.70
2019-04-30T12:02:21.195Z,26.80
2019-04-30T12:04:51.022Z,25.70
2019-04-30T12:07:22.297Z,26.00
2019-04-30T12:09:53.724Z,23.10
2019-04-30T12:12:24.054Z,23.60
2019-04-30T12:14:53.582Z,22.90
2019-04-30T12:17:23.115Z,23.20
2019-04-30T12:19:52.600Z,23.80
2019-04-30T12:22:22.598Z,22.40
2019-04-30T12:25:02.209Z,22.40
2019-04-30T12:27:23.274Z,23.10
2019-04-30T12:29:52.827Z,22.80
2019-04-30T12:32:22.307Z,23.20
2019-04-30T12:34:51.795Z,24.20
2019-04-30T12:37:21.282Z,24.80
2019-04-30T12:39:50.951Z,23.60
2019-04-30T12:42:20.456Z,23.70
2019-04-30T12:44:50.002Z,24.90
2019-04-30T12:47:21.913Z,24.50
2019-04-30T12:49:52.324Z,25.60
2019-04-30T12:52:23.434Z,24.90
2019-04-30T12:54:54.512Z,25.40
2019-04-30T12:57:25.695Z,24.70
2019-04-30T12:59:55.369Z,22.70
2019-04-30T13:02:25.004Z,21.80
2019-04-30T13:04:54.603Z,22.60
2019-04-30T13:07:24.868Z,24.20
2019-04-30T13:09:55.272Z,23.60
2019-04-30T13:12:44.987Z,23.50
2019-04-30T13:15:15.572Z,23.50
2019-04-30T13:17:45.209Z,23.10
2019-04-30T13:20:21.030Z,23.20
2019-04-30T13:22:46.550Z,23.70
2019-04-30T13:25:28.195Z,23.30
2019-04-30T13:27:49.133Z,24.40
2019-04-30T13:30:20.814Z,24.80
2019-04-30T13:32:51.905Z,25.30
2019-04-30T13:35:21.434Z,26.00
2019-04-30T13:37:52.488Z,26.00
2019-04-30T13:40:23.870Z,26.00
2019-04-30T13:43:06.942Z,26.00
2019-04-30T13:45:36.345Z,25.40
2019-04-30T13:48:25.173Z,25.70
2019-04-30T13:50:54.641Z,26.20
2019-04-30T13:53:24.139Z,26.40
2019-04-30T13:55:53.626Z,26.50
2019-04-30T13:58:23.102Z,26.40
2019-04-30T14:00:52.611Z,25.20
2019-04-30T14:03:23.807Z,24.80
2019-04-30T14:05:53.460Z,24.00
2019-04-30T14:08:24.581Z,22.60
2019-04-30T14:10:54.541Z,22.90
2019-04-30T14:13:25.765Z,22.30
2019-04-30T14:15:55.346Z,23.40
2019-04-30T14:18:30.864Z,23.00
2019-04-30T14:20:56.403Z,21.70
2019-04-30T14:23:26.105Z,21.60
2019-04-30T14:25:56.889Z,22.90
2019-04-30T14:28:32.030Z,23.90
2019-04-30T14:31:03.184Z,24.70
2019-04-30T14:33:51.965Z,24.80
2019-04-30T14:36:21.823Z,24.50
2019-04-30T14:38:51.282Z,25.40
2019-04-30T14:41:21.582Z,26.30
2019-04-30T14:43:59.347Z,25.00
2019-04-30T14:46:31.218Z,24.30
2019-04-30T14:49:04.825Z,24.00
2019-04-30T14:51:54.427Z,24.30
2019-04-30T14:54:25.532Z,23.50
2019-04-30T14:56:56.676Z,22.90
2019-04-30T14:59:33.969Z,23.10
2019-04-30T15:02:05.372Z,23.20
2019-04-30T15:04:34.855Z,22.20
2019-04-30T15:07:04.523Z,20.50
2019-04-30T15:09:39.879Z,20.80
2019-04-30T15:12:09.744Z,21.40
2019-04-30T15:14:41.037Z,21.50
2019-04-30T15:17:11.084Z,21.10
2019-04-30T15:19:40.574Z,21.10
2019-04-30T15:22:10.094Z,20.80
2019-04-30T15:24:40.623Z,20.20
2019-04-30T15:27:10.114Z,19.90
2019-04-30T15:29:58.912Z,19.60
2019-04-30T15:32:28.655Z,19.40
2019-04-30T15:34:58.936Z,19.80
2019-04-30T15:37:28.748Z,19.60
2019-04-30T15:39:59.144Z,19.50
2019-04-30T15:42:28.808Z,18.90
2019-04-30T15:44:59.462Z,18.70
2019-04-30T15:47:29.178Z,18.70
2019-04-30T15:49:59.656Z,18.90
2019-04-30T15:52:29.981Z,18.70
2019-04-30T15:55:18.995Z,18.70
2019-04-30T15:57:50.186Z,18.80
2019-04-30T16:00:20.924Z,18.40
2019-04-30T16:02:56.524Z,18.30
2019-04-30T16:05:25.450Z,18.10
2019-04-30T16:07:56.569Z,18.20
2019-04-30T16:10:28.597Z,18.60
2019-04-30T16:12:59.839Z,18.70
2019-04-30T16:15:29.743Z,18.80
2019-04-30T16:18:19.557Z,18.80
2019-04-30T16:20:49.836Z,18.80
2019-04-30T16:23:19.615Z,18.70
2019-04-30T16:26:08.434Z,18.80
2019-04-30T16:28:39.057Z,18.80
2019-04-30T16:31:09.094Z,18.70
2019-04-30T16:33:39.347Z,18.60
2019-04-30T16:36:09.218Z,18.30
2019-04-30T16:38:38.745Z,18.30
2019-04-30T16:41:08.890Z,18.30
2019-04-30T16:43:38.889Z,18.40
2019-04-30T16:46:08.400Z,18.40
2019-04-30T16:48:38.867Z,18.30
2019-04-30T16:51:09.121Z,18.10
2019-04-30T16:53:40.274Z,17.80
2019-04-30T16:56:09.981Z,17.70
2019-04-30T16:58:41.057Z,17.60
2019-04-30T17:01:12.239Z,17.60
2019-04-30T17:03:43.390Z,17.70
2019-04-30T17:06:14.492Z,17.70
2019-04-30T17:08:45.597Z,17.70
2019-04-30T17:11:16.724Z,17.70
2019-04-30T17:13:47.819Z,17.90
2019-04-30T17:16:24.331Z,17.80
2019-04-30T17:18:53.789Z,17.70
2019-04-30T17:21:23.363Z,17.60
2019-04-30T17:23:53.155Z,17.60
2019-04-30T17:26:22.646Z,17.70
2019-04-30T17:28:52.131Z,17.60
2019-04-30T17:31:22.015Z,17.40
2019-04-30T17:33:52.019Z,17.30
2019-04-30T17:36:21.489Z,17.40
2019-04-30T17:38:51.155Z,17.30
2019-04-30T17:41:20.633Z,17.30
2019-04-30T17:43:51.077Z,17.30
2019-04-30T17:46:20.688Z,17.40
2019-04-30T17:48:50.163Z,17.30
2019-04-30T17:51:25.373Z,17.40
2019-04-30T17:53:57.107Z,17.20
2019-04-30T17:56:47.107Z,17.00
2019-04-30T17:59:16.735Z,16.90
2019-04-30T18:01:49.639Z,16.80
2019-04-30T18:04:22.019Z,16.80
2019-04-30T18:06:52.597Z,16.60
2019-04-30T18:09:23.896Z,16.60
2019-04-30T18:12:12.709Z,16.40
2019-04-30T18:14:42.174Z,16.40
2019-04-30T18:17:11.807Z,16.10
2019-04-30T18:19:44.771Z,16.00
2019-04-30T18:22:15.834Z,15.90
2019-04-30T18:24:46.929Z,15.80
2019-04-30T18:27:20.997Z,15.60
2019-04-30T18:29:49.602Z,15.40
2019-04-30T18:32:20.784Z,15.10
2019-04-30T18:34:50.462Z,15.10
2019-04-30T18:37:19.958Z,14.90
2019-04-30T18:39:49.442Z,14.70
2019-04-30T18:42:19.464Z,14.60
2019-04-30T18:44:49.973Z,14.40
2019-04-30T18:47:19.444Z,14.30
2019-04-30T18:49:49.601Z,14.20
2019-04-30T18:52:19.097Z,14.20
2019-04-30T18:54:49.516Z,14.00
2019-04-30T18:57:19.428Z,13.90
2019-04-30T18:59:48.888Z,13.80
2019-04-30T19:02:18.994Z,13.70
2019-04-30T19:04:49.558Z,13.60
2019-04-30T19:07:20.911Z,13.50
2019-04-30T19:09:52.092Z,13.40
2019-04-30T19:12:23.253Z,13.30
2019-04-30T19:14:54.365Z,13.20
2019-04-30T19:17:26.074Z,13.10
2019-04-30T19:19:57.420Z,13.10
2019-04-30T19:22:28.598Z,12.90
2019-04-30T19:24:59.492Z,12.90
2019-04-30T19:27:31.017Z,12.90
2019-04-30T19:30:04.877Z,12.90
2019-04-30T19:32:34.376Z,12.90
2019-04-30T19:35:05.025Z,12.80
2019-04-30T19:37:34.493Z,12.80
2019-04-30T19:40:08.978Z,12.70
2019-04-30T19:42:39.563Z,12.50
2019-04-30T19:45:12.365Z,12.50
2019-04-30T19:47:40.863Z,12.40
2019-04-30T19:50:13.882Z,12.30
2019-04-30T19:52:42.211Z,12.30
2019-04-30T19:55:12.106Z,12.40
2019-04-30T19:57:41.588Z,12.40
2019-04-30T20:00:11.563Z,12.40
2019-04-30T20:02:41.136Z,12.40
2019-04-30T20:05:11.064Z,12.50
2019-04-30T20:07:40.732Z,12.50
2019-04-30T20:10:10.919Z,12.50
2019-04-30T20:12:59.738Z,12.50
2019-04-30T20:15:29.792Z,12.50
2019-04-30T20:18:00.999Z,12.50
2019-04-30T20:20:30.832Z,12.50
2019-04-30T20:23:00.460Z,12.40
2019-04-30T20:25:29.880Z,12.40
2019-04-30T20:27:59.376Z,12.30
2019-04-30T20:30:29.288Z,12.30
2019-04-30T20:32:59.441Z,12.20
2019-04-30T20:35:29.111Z,12.10
2019-04-30T20:38:19.556Z,12.10
2019-04-30T20:41:10.001Z,12.00
2019-04-30T20:43:39.581Z,12.00
2019-04-30T20:46:09.783Z,12.00
2019-04-30T20:48:41.095Z,12.00
2019-04-30T20:51:10.687Z,11.90
2019-04-30T20:53:41.054Z,11.90
2019-04-30T20:56:10.755Z,12.00
2019-04-30T20:58:54.665Z,12.10
2019-04-30T21:01:11.502Z,12.10
2019-04-30T21:03:41.034Z,12.10
2019-04-30T21:06:10.510Z,12.10
2019-04-30T21:08:40.007Z,12.20
2019-04-30T21:11:28.838Z,12.20
2019-04-30T21:13:59.069Z,12.20
2019-04-30T21:16:28.777Z,12.00
2019-04-30T21:18:58.298Z,11.50
2019-04-30T21:21:28.752Z,11.20
2019-04-30T21:23:58.665Z,11.20
2019-04-30T21:26:28.162Z,11.30
2019-04-30T21:29:10.403Z,11.40
2019-04-30T21:31:49.853Z,11.50
2019-04-30T21:34:20.946Z,11.40
2019-04-30T21:36:50.520Z,11.50
2019-04-30T21:39:20.230Z,11.50
2019-04-30T21:41:49.779Z,11.60
2019-04-30T21:44:19.270Z,11.50
2019-04-30T21:46:48.929Z,11.40
2019-04-30T21:49:18.431Z,11.40
2019-04-30T21:51:47.889Z,11.40
2019-04-30T21:54:17.377Z,11.50
2019-04-30T21:56:46.884Z,11.50
2019-04-30T21:59:24.288Z,11.50
2019-04-30T22:01:48.029Z,11.50
2019-04-30T22:04:17.485Z,11.50
2019-04-30T22:06:46.985Z,11.50
2019-04-30T22:09:16.866Z,11.50
2019-04-30T22:11:46.334Z,11.30
2019-04-30T22:14:15.839Z,11.30
2019-04-30T22:16:45.426Z,11.20
2019-04-30T22:19:14.918Z,11.20
2019-04-30T22:21:44.574Z,11.20
2019-04-30T22:24:15.622Z,11.20
2019-04-30T22:26:45.102Z,10.90
2019-04-30T22:29:14.560Z,10.70
2019-04-30T22:31:44.090Z,10.70
2019-04-30T22:34:13.549Z,10.70
2019-04-30T22:36:44.621Z,10.60
2019-04-30T22:39:17.245Z,10.50
2019-04-30T22:41:46.705Z,10.50
2019-04-30T22:44:16.198Z,10.40
2019-04-30T22:46:45.713Z,10.30
2019-04-30T22:49:15.360Z,10.20
2019-04-30T22:51:44.951Z,10.10
2019-04-30T22:54:14.497Z,10.10
2019-04-30T22:56:43.976Z,10.00
2019-04-30T22:59:14.935Z,9.90
2019-04-30T23:01:46.146Z,9.80
2019-04-30T23:04:17.245Z,9.70
2019-04-30T23:06:46.919Z,9.70
2019-04-30T23:09:18.288Z,9.60
2019-04-30T23:11:47.765Z,9.50
2019-04-30T23:14:17.291Z,9.50
2019-04-30T23:16:48.305Z,9.40
2019-04-30T23:19:17.800Z,9.30
2019-04-30T23:21:47.289Z,9.20
2019-04-30T23:24:16.768Z,9.20
2019-04-30T23:26:46.221Z,9.20
2019-04-30T23:29:15.683Z,9.10
2019-04-30T23:31:45.210Z,9.00
2019-04-30T23:34:18.155Z,8.90
2019-04-30T23:36:46.055Z,8.90
2019-04-30T23:39:15.539Z,8.90
2019-04-30T23:41:45.167Z,8.80
2019-04-30T23:44:14.632Z,8.70
2019-04-30T23:47:03.467Z,8.60
2019-04-30T23:49:33.064Z,8.60
2019-04-30T23:52:02.533Z,8.40
2019-04-30T23:54:32.074Z,8.40
2019-04-30T23:57:01.553Z,8.40
2019-04-30T23:59:31.030Z,8.40
